createdAt,value
2023-02-27T00:02:14.612Z,29.70
2023-02-27T00:04:43.995Z,29.62
2023-02-27T00:07:12.260Z,29.75
2023-02-27T00:09:44.328Z,29.46
2023-02-27T00:12:15.520Z,29.26
2023-02-27T00:14:43.920Z,29.21
2023-02-27T00:17:16.959Z,29.25
2023-02-27T00:19:52.823Z,29.20
2023-02-27T00:22:20.859Z,28.86
2023-02-27T00:24:59.797Z,28.65
2023-02-27T00:27:27.950Z,29.07
2023-02-27T00:29:56.449Z,28.99
2023-02-27T00:32:25.064Z,28.65
2023-02-27T00:34:53.508Z,28.49
2023-02-27T00:37:21.543Z,28.49
2023-02-27T00:39:50.495Z,28.31
2023-02-27T00:42:18.537Z,27.93
2023-02-27T00:44:47.904Z,28.21
2023-02-27T00:47:16.011Z,28.35
2023-02-27T00:49:46.848Z,28.00
2023-02-27T00:52:14.914Z,27.83
2023-02-27T00:54:43.026Z,27.88
2023-02-27T00:57:11.078Z,27.72
2023-02-27T00:59:39.168Z,27.46
2023-02-27T01:02:09.048Z,27.45
2023-02-27T01:04:37.413Z,27.67
2023-02-27T01:07:05.615Z,27.81
2023-02-27T01:09:33.774Z,27.66
2023-02-27T01:12:01.912Z,27.70
2023-02-27T01:14:31.000Z,27.80
2023-02-27T01:16:59.082Z,27.76
2023-02-27T01:19:27.173Z,27.91
2023-02-27T01:21:56.060Z,28.09
2023-02-27T01:24:26.696Z,28.58
2023-02-27T01:26:54.887Z,28.50
2023-02-27T01:29:22.978Z,28.21
2023-02-27T01:31:51.345Z,28.07
2023-02-27T01:34:19.619Z,28.18
2023-02-27T01:36:48.503Z,28.04
2023-02-27T01:39:17.805Z,27.70
2023-02-27T01:41:45.996Z,27.72
2023-02-27T01:44:19.465Z,27.61
2023-02-27T01:50:06.930Z,36.32
2023-02-27T01:52:37.039Z,33.32
2023-02-27T01:55:08.494Z,33.04
2023-02-27T01:57:37.459Z,32.65
2023-02-27T02:00:06.299Z,32.59
2023-02-27T02:02:48.236Z,32.37
2023-02-27T02:05:16.236Z,32.15
2023-02-27T02:07:44.483Z,31.97
2023-02-27T02:10:13.096Z,31.70
2023-02-27T02:12:41.273Z,31.29
2023-02-27T02:15:13.590Z,31.12
2023-02-27T02:18:20.420Z,30.88
2023-02-27T02:21:16.045Z,30.70
2023-02-27T02:24:03.783Z,30.79
2023-02-27T02:26:36.161Z,30.69
2023-02-27T02:29:22.765Z,30.90
2023-02-27T02:32:05.937Z,30.87
2023-02-27T02:35:11.526Z,30.87
2023-02-27T02:38:17.281Z,30.48
2023-02-27T02:40:54.353Z,30.39
2023-02-27T02:43:26.218Z,30.61
2023-02-27T02:46:10.221Z,30.62
2023-02-27T02:48:50.338Z,30.35
2023-02-27T02:51:20.409Z,30.17
2023-02-27T02:53:52.153Z,29.91
2023-02-27T02:56:51.067Z,29.87
2023-02-27T02:59:40.010Z,29.79
2023-02-27T03:02:14.787Z,29.92
2023-02-27T03:04:53.243Z,29.89
2023-02-27T03:07:44.457Z,30.41
2023-02-27T03:10:43.155Z,30.59
2023-02-27T03:13:21.490Z,30.55
2023-02-27T03:15:59.608Z,30.55
2023-02-27T03:18:31.785Z,30.35
2023-02-27T03:21:16.145Z,30.50
2023-02-27T03:23:45.737Z,30.55
2023-02-27T03:26:17.424Z,30.85
2023-02-27T03:28:57.888Z,30.96
2023-02-27T03:31:31.884Z,30.90
2023-02-27T03:34:09.058Z,30.36
2023-02-27T03:36:45.014Z,30.12
2023-02-27T03:39:32.746Z,30.22
2023-02-27T03:42:04.413Z,30.38
2023-02-27T03:45:24.820Z,30.08
2023-02-27T03:47:53.073Z,29.87
2023-02-27T03:50:22.011Z,29.59
2023-02-27T03:52:50.654Z,29.79
2023-02-27T03:55:23.739Z,29.60
2023-02-27T03:57:52.147Z,29.92
2023-02-27T04:00:21.980Z,29.66
2023-02-27T04:02:54.820Z,29.54
2023-02-27T04:05:25.339Z,29.19
2023-02-27T04:08:05.162Z,28.70
2023-02-27T04:10:43.135Z,28.64
2023-02-27T04:13:23.190Z,28.69
2023-02-27T04:16:22.704Z,28.86
2023-02-27T04:18:56.950Z,28.79
2023-02-27T04:21:29.915Z,28.65
2023-02-27T04:24:02.310Z,28.61
2023-02-27T04:26:47.293Z,28.54
2023-02-27T04:29:21.561Z,28.53
2023-02-27T04:31:51.651Z,28.90
2023-02-27T04:34:23.322Z,29.19
2023-02-27T04:37:11.943Z,28.89
2023-02-27T04:39:53.405Z,28.44
2023-02-27T04:42:24.288Z,28.95
2023-02-27T04:45:00.619Z,28.63
2023-02-27T04:47:30.917Z,28.81
2023-02-27T04:50:01.374Z,29.00
2023-02-27T04:52:51.888Z,29.15
2023-02-27T04:55:36.201Z,29.14
2023-02-27T04:58:11.665Z,28.69
2023-02-27T05:00:41.346Z,28.91
2023-02-27T05:03:16.835Z,28.64
2023-02-27T05:05:45.112Z,28.58
2023-02-27T05:08:28.396Z,28.49
2023-02-27T05:10:58.159Z,28.26
2023-02-27T05:13:44.142Z,28.30
2023-02-27T05:16:23.148Z,28.34
2023-02-27T05:18:56.301Z,28.42
2023-02-27T05:21:32.345Z,28.42
2023-02-27T05:24:10.024Z,28.51
2023-02-27T05:26:45.465Z,28.45
2023-02-27T05:29:25.051Z,28.12
2023-02-27T05:32:17.897Z,28.08
2023-02-27T05:35:08.979Z,27.90
2023-02-27T05:37:40.005Z,27.97
2023-02-27T05:40:09.238Z,28.39
2023-02-27T05:42:41.016Z,28.20
2023-02-27T05:45:15.901Z,27.82
2023-02-27T05:47:46.618Z,27.86
2023-02-27T05:50:23.280Z,27.97
2023-02-27T05:52:52.206Z,27.60
2023-02-27T05:55:42.461Z,27.66
2023-02-27T05:58:21.964Z,27.62
2023-02-27T06:00:58.696Z,27.73
2023-02-27T06:03:28.491Z,27.36
2023-02-27T06:05:58.101Z,27.37
2023-02-27T06:08:26.308Z,27.21
2023-02-27T06:10:55.497Z,27.36
2023-02-27T06:13:26.511Z,27.52
2023-02-27T06:15:54.554Z,27.58
2023-02-27T06:18:23.617Z,27.45
2023-02-27T06:20:52.015Z,27.34
2023-02-27T06:23:25.377Z,26.71
2023-02-27T06:25:54.020Z,26.51
2023-02-27T06:28:22.086Z,26.73
2023-02-27T06:30:55.113Z,27.01
2023-02-27T06:33:28.983Z,26.94
2023-02-27T06:35:58.955Z,26.82
2023-02-27T06:38:27.397Z,26.77
2023-02-27T06:40:57.121Z,26.87
2023-02-27T06:43:25.888Z,26.64
2023-02-27T06:45:56.046Z,26.49
2023-02-27T06:48:24.665Z,26.42
2023-02-27T06:50:53.816Z,26.23
2023-02-27T06:53:23.082Z,26.38
2023-02-27T06:55:51.665Z,26.63
2023-02-27T06:58:21.213Z,26.73
2023-02-27T07:00:49.573Z,26.63
2023-02-27T07:03:17.967Z,26.86
2023-02-27T07:05:50.022Z,26.66
2023-02-27T07:08:18.295Z,26.66
2023-02-27T07:10:47.400Z,26.48
2023-02-27T07:13:19.653Z,26.71
2023-02-27T07:15:49.072Z,26.66
2023-02-27T07:18:17.539Z,26.70
2023-02-27T07:20:45.645Z,26.59
2023-02-27T07:23:14.809Z,26.36
2023-02-27T07:25:43.070Z,26.29
2023-02-27T07:28:11.703Z,26.29
2023-02-27T07:30:40.256Z,26.53
2023-02-27T07:33:08.801Z,26.26
2023-02-27T07:35:36.953Z,26.16
2023-02-27T07:38:04.880Z,26.25
2023-02-27T07:40:33.363Z,26.35
2023-02-27T07:43:06.861Z,26.10
2023-02-27T07:45:35.666Z,26.11
2023-02-27T07:48:03.875Z,26.12
2023-02-27T07:50:32.306Z,26.51
2023-02-27T07:53:00.628Z,26.41
2023-02-27T07:55:28.820Z,25.86
2023-02-27T07:58:00.074Z,25.78
2023-02-27T08:00:29.709Z,25.60
2023-02-27T08:02:57.892Z,25.76
2023-02-27T08:05:29.001Z,26.19
2023-02-27T08:07:57.298Z,26.14
2023-02-27T08:10:27.747Z,25.98
2023-02-27T08:12:56.448Z,25.80
2023-02-27T08:15:24.842Z,25.45
2023-02-27T08:17:53.160Z,25.47
2023-02-27T08:20:23.031Z,25.79
2023-02-27T08:22:51.433Z,25.95
2023-02-27T08:25:21.593Z,25.60
2023-02-27T08:27:50.006Z,25.30
2023-02-27T08:30:18.727Z,24.96
2023-02-27T08:32:47.152Z,24.68
2023-02-27T08:35:15.648Z,24.39
2023-02-27T08:37:44.067Z,24.24
2023-02-27T08:40:12.679Z,24.51
2023-02-27T08:42:40.865Z,24.70
2023-02-27T08:45:11.557Z,24.38
2023-02-27T08:47:39.550Z,24.09
2023-02-27T08:50:08.975Z,24.10
2023-02-27T08:52:37.327Z,24.35
2023-02-27T08:55:05.902Z,24.52
2023-02-27T08:57:34.410Z,24.39
2023-02-27T09:00:06.140Z,24.03
2023-02-27T09:02:36.317Z,24.25
2023-02-27T09:05:05.687Z,24.11
2023-02-27T09:07:34.689Z,23.39
2023-02-27T09:10:03.114Z,23.77
2023-02-27T09:12:37.639Z,24.16
2023-02-27T09:15:11.732Z,24.28
2023-02-27T09:17:42.167Z,24.01
2023-02-27T09:20:12.869Z,24.00
2023-02-27T09:22:41.579Z,23.31
2023-02-27T09:25:12.240Z,23.16
2023-02-27T09:27:41.833Z,22.88
2023-02-27T09:30:11.282Z,22.97
2023-02-27T09:32:39.843Z,22.83
2023-02-27T09:35:09.514Z,22.90
2023-02-27T09:37:37.799Z,23.14
2023-02-27T09:40:07.828Z,23.39
2023-02-27T09:42:38.490Z,23.20
2023-02-27T09:45:07.609Z,22.93
2023-02-27T09:47:38.328Z,22.81
2023-02-27T09:50:17.189Z,22.76
2023-02-27T09:52:45.762Z,22.68
2023-02-27T09:55:19.343Z,22.25
2023-02-27T09:57:56.519Z,22.38
2023-02-27T10:00:48.313Z,22.44
2023-02-27T10:03:34.655Z,22.56
2023-02-27T10:06:12.611Z,22.48
2023-02-27T10:08:56.184Z,22.17
2023-02-27T10:11:30.977Z,22.08
2023-02-27T10:14:37.853Z,22.18
2023-02-27T10:17:11.824Z,22.74
2023-02-27T10:19:40.456Z,23.37
2023-02-27T10:22:11.946Z,23.58
2023-02-27T10:24:46.869Z,23.40
2023-02-27T10:27:17.815Z,23.83
2023-02-27T10:29:45.647Z,23.85
2023-02-27T10:32:17.219Z,23.91
2023-02-27T10:34:55.289Z,24.09
2023-02-27T10:37:24.359Z,23.98
2023-02-27T10:39:57.013Z,24.14
2023-02-27T10:42:28.238Z,24.16
2023-02-27T10:44:56.405Z,24.53
2023-02-27T10:47:25.223Z,24.48
2023-02-27T10:49:53.903Z,24.34
2023-02-27T10:52:22.088Z,24.53
2023-02-27T10:54:50.244Z,25.07
2023-02-27T10:57:26.449Z,25.08
2023-02-27T10:59:59.278Z,24.96
2023-02-27T11:02:36.183Z,24.85
2023-02-27T11:05:28.417Z,25.01
2023-02-27T11:07:57.634Z,24.84
2023-02-27T11:10:28.849Z,24.50
2023-02-27T11:13:00.813Z,24.05
2023-02-27T11:15:34.812Z,23.98
2023-02-27T11:18:28.904Z,23.96
2023-02-27T11:21:15.601Z,24.47
2023-02-27T11:23:57.754Z,23.97
2023-02-27T11:26:30.053Z,23.55
2023-02-27T11:29:18.333Z,23.88
2023-02-27T11:32:03.725Z,24.12
2023-02-27T11:34:38.790Z,23.71
2023-02-27T11:37:24.476Z,23.80
2023-02-27T11:40:12.857Z,23.51
2023-02-27T11:43:05.329Z,24.06
2023-02-27T11:46:04.153Z,23.82
2023-02-27T11:48:38.619Z,23.81
2023-02-27T11:51:44.596Z,23.94
2023-02-27T11:54:18.872Z,23.71
2023-02-27T11:57:09.192Z,23.54
2023-02-27T11:59:52.865Z,23.67
2023-02-27T12:02:24.426Z,23.78
2023-02-27T12:05:02.412Z,23.44
2023-02-27T12:07:54.415Z,23.41
2023-02-27T12:10:26.798Z,23.27
2023-02-27T12:13:15.544Z,23.49
2023-02-27T12:16:00.720Z,23.93
2023-02-27T12:18:38.214Z,24.20
2023-02-27T12:21:07.674Z,24.40
2023-02-27T12:23:41.144Z,24.44
2023-02-27T12:26:45.691Z,24.49
2023-02-27T12:29:25.805Z,24.46
2023-02-27T12:32:09.036Z,24.54
2023-02-27T12:34:46.842Z,24.34
2023-02-27T12:37:29.117Z,24.36
2023-02-27T12:39:59.566Z,24.29
2023-02-27T12:42:52.861Z,24.29
2023-02-27T12:45:51.924Z,24.07
2023-02-27T12:49:08.960Z,23.71
2023-02-27T12:52:04.342Z,23.70
2023-02-27T12:54:42.193Z,23.71
2023-02-27T12:57:16.157Z,23.65
2023-02-27T12:59:59.153Z,23.92
2023-02-27T13:03:02.911Z,23.87
2023-02-27T13:06:01.702Z,23.83
2023-02-27T13:08:47.295Z,23.75
2023-02-27T13:11:34.099Z,24.36
2023-02-27T13:14:04.231Z,24.57
2023-02-27T13:16:36.826Z,23.99
2023-02-27T13:19:19.175Z,24.26
2023-02-27T13:21:56.086Z,24.45
2023-02-27T13:24:31.586Z,24.12
2023-02-27T13:27:19.976Z,24.08
2023-02-27T13:30:03.823Z,23.87
2023-02-27T13:32:44.925Z,23.40
2023-02-27T13:35:33.175Z,23.86
2023-02-27T13:38:42.498Z,24.06
2023-02-27T13:41:20.330Z,24.00
2023-02-27T13:43:53.237Z,24.18
2023-02-27T13:46:25.152Z,24.38
2023-02-27T13:49:06.022Z,24.17
2023-02-27T13:51:43.536Z,24.35
2023-02-27T13:54:14.542Z,24.77
2023-02-27T13:56:51.229Z,24.89
2023-02-27T13:59:41.975Z,25.10
2023-02-27T14:02:33.384Z,25.27
2023-02-27T14:07:09.855Z,29.96
2023-02-27T14:09:41.272Z,27.14
2023-02-27T14:12:46.750Z,26.69
2023-02-27T14:15:21.947Z,26.64
2023-02-27T14:18:11.424Z,26.45
2023-02-27T14:20:42.174Z,26.16
2023-02-27T14:23:17.320Z,26.02
2023-02-27T14:25:45.994Z,26.35
2023-02-27T14:29:07.785Z,26.30
2023-02-27T14:31:37.745Z,25.87
2023-02-27T14:34:06.794Z,25.52
2023-02-27T14:36:40.877Z,25.58
2023-02-27T14:39:21.173Z,25.54
2023-02-27T14:42:11.021Z,25.22
2023-02-27T14:44:43.743Z,25.46
2023-02-27T14:47:28.285Z,25.82
2023-02-27T14:49:56.307Z,25.99
2023-02-27T14:52:25.265Z,25.93
2023-02-27T14:54:53.833Z,25.58
2023-02-27T14:57:24.287Z,25.59
2023-02-27T14:59:58.265Z,25.31
2023-02-27T15:02:28.013Z,25.15
2023-02-27T15:05:13.819Z,24.96
2023-02-27T15:07:44.716Z,25.39
2023-02-27T15:10:30.939Z,25.38
2023-02-27T15:12:59.789Z,25.72
2023-02-27T15:15:28.422Z,25.98
2023-02-27T15:17:56.564Z,25.68
2023-02-27T15:20:35.049Z,25.64
2023-02-27T15:23:21.192Z,25.73
2023-02-27T15:25:49.333Z,25.34
2023-02-27T15:28:23.815Z,25.34
2023-02-27T15:30:52.955Z,25.43
2023-02-27T15:33:27.927Z,25.93
2023-02-27T15:35:56.378Z,25.73
2023-02-27T15:38:34.797Z,26.01
2023-02-27T15:41:03.773Z,26.07
2023-02-27T15:43:31.847Z,25.77
2023-02-27T15:46:00.488Z,25.81
2023-02-27T15:48:29.992Z,25.99
2023-02-27T15:50:59.262Z,26.19
2023-02-27T15:53:28.544Z,26.42
2023-02-27T15:55:58.423Z,26.66
2023-02-27T15:58:31.122Z,26.73
2023-02-27T16:01:05.553Z,26.74
2023-02-27T16:03:43.464Z,26.67
2023-02-27T16:06:18.917Z,26.56
2023-02-27T16:08:53.507Z,26.56
2023-02-27T16:11:25.881Z,26.23
2023-02-27T16:13:55.431Z,26.35
2023-02-27T16:16:37.747Z,25.97
2023-02-27T16:19:16.836Z,25.69
2023-02-27T16:22:11.925Z,25.93
2023-02-27T16:24:40.716Z,25.87
2023-02-27T16:27:26.197Z,25.93
2023-02-27T16:29:55.679Z,26.36
2023-02-27T16:32:35.045Z,26.36
2023-02-27T16:35:08.882Z,25.98
2023-02-27T16:37:38.974Z,25.94
2023-02-27T16:40:11.273Z,25.82
2023-02-27T16:42:40.745Z,26.23
2023-02-27T16:45:14.979Z,25.86
2023-02-27T16:47:44.112Z,25.68
2023-02-27T16:50:19.701Z,25.61
2023-02-27T16:52:47.948Z,25.74
2023-02-27T16:55:16.743Z,25.91
2023-02-27T16:57:45.046Z,25.64
2023-02-27T17:00:14.556Z,25.32
2023-02-27T17:02:43.665Z,25.77
2023-02-27T17:05:11.976Z,25.46
2023-02-27T17:07:40.155Z,25.91
2023-02-27T17:10:09.486Z,26.18
2023-02-27T17:12:44.559Z,26.25
2023-02-27T17:15:14.198Z,26.38
2023-02-27T17:17:43.427Z,26.54
2023-02-27T17:20:12.845Z,26.65
2023-02-27T17:22:43.383Z,26.71
2023-02-27T17:25:11.910Z,26.63
2023-02-27T17:27:42.389Z,26.87
2023-02-27T17:30:11.588Z,26.84
2023-02-27T17:32:40.562Z,26.62
2023-02-27T17:35:09.314Z,26.55
2023-02-27T17:37:38.513Z,26.21
2023-02-27T17:40:08.343Z,26.02
2023-02-27T17:42:37.234Z,26.13
2023-02-27T17:45:06.905Z,26.36
2023-02-27T17:47:35.757Z,26.20
2023-02-27T17:50:05.024Z,26.34
2023-02-27T17:52:36.151Z,26.35
2023-02-27T17:55:05.981Z,26.73
2023-02-27T17:57:35.951Z,26.74
2023-02-27T18:00:05.691Z,26.88
2023-02-27T18:02:36.630Z,27.17
2023-02-27T18:05:06.007Z,27.31
2023-02-27T18:07:34.886Z,27.24
2023-02-27T18:10:05.569Z,26.85
2023-02-27T18:12:35.138Z,27.00
2023-02-27T18:15:07.206Z,27.28
2023-02-27T18:17:36.471Z,27.04
2023-02-27T18:20:06.654Z,26.89
2023-02-27T18:22:36.109Z,26.85
2023-02-27T18:25:05.567Z,26.92
2023-02-27T18:27:35.262Z,26.74
2023-02-27T18:30:04.581Z,26.62
2023-02-27T18:32:39.850Z,26.57
2023-02-27T18:35:08.992Z,26.52
2023-02-27T18:37:41.308Z,26.39
2023-02-27T18:40:12.011Z,26.27
2023-02-27T18:42:49.912Z,26.20
2023-02-27T18:45:20.222Z,25.93
2023-02-27T18:47:48.258Z,25.94
2023-02-27T18:50:17.892Z,25.96
2023-02-27T18:52:47.373Z,25.71
2023-02-27T18:55:17.445Z,25.95
2023-02-27T18:57:48.077Z,26.32
2023-02-27T19:00:16.600Z,26.92
2023-02-27T19:02:45.368Z,26.97
2023-02-27T19:05:14.751Z,27.04
2023-02-27T19:07:43.018Z,26.91
2023-02-27T19:10:12.005Z,26.70
2023-02-27T19:12:40.214Z,26.61
2023-02-27T19:15:11.134Z,26.49
2023-02-27T19:17:39.227Z,26.27
2023-02-27T19:20:14.544Z,26.18
2023-02-27T19:22:42.999Z,26.40
2023-02-27T19:25:11.165Z,26.63
2023-02-27T19:27:40.617Z,26.26
2023-02-27T19:30:10.906Z,26.18
2023-02-27T19:32:39.840Z,26.00
2023-02-27T19:35:14.985Z,26.28
2023-02-27T19:37:43.611Z,26.30
2023-02-27T19:40:13.816Z,26.35
2023-02-27T19:42:44.795Z,26.24
2023-02-27T19:45:12.986Z,26.19
2023-02-27T19:47:44.157Z,26.03
2023-02-27T19:50:12.273Z,25.84
2023-02-27T19:52:43.102Z,25.93
2023-02-27T19:55:12.299Z,25.74
2023-02-27T19:57:41.588Z,25.69
2023-02-27T20:00:13.384Z,25.91
2023-02-27T20:02:41.568Z,25.92
2023-02-27T20:05:12.060Z,26.07
2023-02-27T20:07:42.488Z,25.93
2023-02-27T20:10:14.623Z,25.85
2023-02-27T20:12:43.795Z,26.00
2023-02-27T20:15:15.289Z,25.84
2023-02-27T20:17:44.171Z,25.50
2023-02-27T20:20:13.546Z,25.42
2023-02-27T20:22:43.806Z,25.81
2023-02-27T20:25:12.061Z,25.61
2023-02-27T20:27:41.039Z,25.47
2023-02-27T20:30:11.362Z,25.24
2023-02-27T20:32:39.744Z,25.29
2023-02-27T20:35:08.642Z,25.13
2023-02-27T20:37:36.803Z,24.90
2023-02-27T20:40:08.429Z,24.85
2023-02-27T20:42:36.594Z,24.85
2023-02-27T20:45:05.987Z,25.08
2023-02-27T20:47:34.183Z,24.78
2023-02-27T20:50:02.429Z,25.15
2023-02-27T20:52:31.034Z,25.32
2023-02-27T20:54:59.149Z,25.25
2023-02-27T20:57:27.127Z,25.20
2023-02-27T20:59:55.344Z,25.39
2023-02-27T21:02:23.451Z,25.15
2023-02-27T21:04:53.397Z,24.84
2023-02-27T21:07:23.857Z,24.99
2023-02-27T21:09:52.205Z,25.38
2023-02-27T21:12:23.513Z,25.50
2023-02-27T21:14:52.152Z,25.47
2023-02-27T21:17:20.652Z,25.16
2023-02-27T21:19:52.369Z,24.82
2023-02-27T21:22:20.762Z,24.90
2023-02-27T21:24:52.078Z,24.60
2023-02-27T21:27:21.402Z,24.76
2023-02-27T21:29:50.611Z,24.47
2023-02-27T21:32:19.959Z,24.27
2023-02-27T21:34:48.039Z,24.38
2023-02-27T21:37:19.731Z,24.26
2023-02-27T21:39:52.596Z,24.17
2023-02-27T21:42:20.629Z,24.26
2023-02-27T21:44:49.454Z,24.04
2023-02-27T21:47:21.414Z,23.88
2023-02-27T21:49:51.531Z,24.50
2023-02-27T21:52:19.518Z,24.64
2023-02-27T21:54:48.602Z,24.18
2023-02-27T21:57:16.519Z,24.40
2023-02-27T21:59:45.865Z,24.22
2023-02-27T22:02:14.867Z,24.52
2023-02-27T22:04:43.952Z,24.65
2023-02-27T22:07:12.125Z,24.68
2023-02-27T22:09:45.390Z,25.07
2023-02-27T22:12:16.218Z,25.10
2023-02-27T22:14:45.985Z,25.02
2023-02-27T22:17:14.179Z,25.16
2023-02-27T22:19:42.731Z,25.07
2023-02-27T22:22:10.885Z,25.25
2023-02-27T22:24:41.946Z,25.35
2023-02-27T22:27:10.085Z,25.60
2023-02-27T22:29:38.814Z,25.29
2023-02-27T22:32:07.211Z,25.03
2023-02-27T22:34:35.764Z,25.23
2023-02-27T22:37:03.839Z,25.05
2023-02-27T22:39:32.568Z,24.86
2023-02-27T22:42:00.795Z,25.03
2023-02-27T22:44:29.289Z,24.52
2023-02-27T22:46:57.430Z,24.42
2023-02-27T22:49:28.603Z,24.75
2023-02-27T22:51:57.163Z,24.43
2023-02-27T22:54:25.349Z,24.59
2023-02-27T22:56:56.339Z,24.61
2023-02-27T22:59:30.633Z,25.20
2023-02-27T23:01:59.364Z,25.49
2023-02-27T23:04:28.288Z,25.55
2023-02-27T23:06:56.662Z,25.61
2023-02-27T23:09:26.285Z,25.65
2023-02-27T23:11:55.157Z,25.45
2023-02-27T23:14:23.680Z,25.44
2023-02-27T23:16:51.788Z,25.27
2023-02-27T23:19:21.028Z,25.01
2023-02-27T23:21:54.712Z,24.94
2023-02-27T23:24:22.801Z,24.82
2023-02-27T23:26:52.639Z,24.77
2023-02-27T23:29:20.811Z,24.93
2023-02-27T23:31:48.984Z,24.93
2023-02-27T23:34:18.265Z,24.68
2023-02-27T23:36:46.410Z,24.92
2023-02-27T23:39:14.488Z,25.10
2023-02-27T23:41:43.766Z,25.17
2023-02-27T23:44:11.868Z,25.06
2023-02-27T23:46:40.755Z,25.38
2023-02-27T23:49:09.447Z,25.60
2023-02-27T23:51:37.619Z,25.70
2023-02-27T23:54:06.304Z,25.47
2023-02-27T23:56:34.788Z,25.00
2023-02-27T23:59:05.109Z,25.35
